Time;durP1;ratioP1;P1;durP2;ratioP2;P2;SDS_P1;SDS_P2;PMS_P1;PMS_P2;Temp;Humidity;BMP_temperature;BMP_pressure;BME280_temperature;BME280_humidity;BME280_pressure;Samples;Min_cycle;Max_cycle;Signal;HPM_P1;HPM_P2
2022/12/31 00:00:30;;;;;;;51.80;19.98;;;;;;;8.88;62.14;99269.72;4334502;33;20095;-86
2022/12/31 00:02:55;;;;;;;49.38;19.75;;;;;;;8.96;61.90;99265.03;4334532;33;20135;-85
2022/12/31 00:05:21;;;;;;;51.22;20.60;;;;;;;8.95;62.09;99263.31;4334609;33;20190;-82
2022/12/31 00:07:47;;;;;;;53.35;20.00;;;;;;;8.95;62.13;99270.34;4321147;33;20111;-88
2022/12/31 00:10:13;;;;;;;55.65;19.87;;;;;;;9.01;62.09;99264.84;4333391;33;20100;-90
2022/12/31 00:12:38;;;;;;;52.92;20.30;;;;;;;9.01;62.00;99265.69;4334570;33;20083;-89
2022/12/31 00:15:04;;;;;;;54.22;20.25;;;;;;;9.05;61.83;99267.25;4334387;33;20083;-90
2022/12/31 00:17:29;;;;;;;51.25;20.62;;;;;;;9.03;61.94;99273.50;4334463;33;20119;-90
2022/12/31 00:19:55;;;;;;;55.55;20.02;;;;;;;9.00;62.00;99274.50;4321136;33;20143;-91
2022/12/31 00:22:20;;;;;;;58.72;20.45;;;;;;;8.99;62.03;99283.28;4320918;33;20202;-90
2022/12/31 00:24:46;;;;;;;52.33;19.92;;;;;;;9.01;62.03;99283.22;4334340;33;20109;-90
2022/12/31 00:27:11;;;;;;;49.05;18.70;;;;;;;8.99;62.12;99285.91;4334061;33;20100;-89
2022/12/31 00:29:37;;;;;;;54.78;19.00;;;;;;;8.97;62.10;99293.00;4334233;33;20127;-90
2022/12/31 00:32:02;;;;;;;52.03;19.80;;;;;;;8.96;62.30;99298.31;4334318;33;20146;-90
2022/12/31 00:34:27;;;;;;;49.78;18.52;;;;;;;9.02;62.33;99301.56;4334195;33;20079;-90
2022/12/31 00:36:53;;;;;;;52.42;20.15;;;;;;;9.01;62.29;99302.47;4333879;33;20108;-90
2022/12/31 00:39:18;;;;;;;51.55;19.23;;;;;;;9.02;62.37;99301.56;4335937;33;20079;-90
2022/12/31 00:41:44;;;;;;;45.65;17.60;;;;;;;9.08;62.17;99291.72;4335934;33;20112;-90
2022/12/31 00:44:13;;;;;;;44.60;17.30;;;;;;;9.08;62.21;99302.22;4322401;33;20114;-90
2022/12/31 00:46:38;;;;;;;53.78;18.80;;;;;;;9.10;61.87;99295.13;4334704;33;20133;-91
2022/12/31 00:49:04;;;;;;;44.75;17.95;;;;;;;9.07;62.12;99297.91;4322536;33;20104;-90
2022/12/31 00:51:29;;;;;;;48.42;17.40;;;;;;;9.08;62.03;99300.47;4335898;33;20092;-90
2022/12/31 00:53:55;;;;;;;54.45;18.83;;;;;;;9.05;62.21;99301.44;4335825;33;20067;-91
2022/12/31 00:56:26;;;;;;;49.60;18.23;;;;;;;8.97;62.26;99311.41;4322575;33;20104;-91
2022/12/31 00:58:51;;;;;;;44.72;16.77;;;;;;;9.02;62.15;99317.34;4322439;33;20147;-86
2022/12/31 01:01:19;;;;;;;47.40;16.75;;;;;;;9.07;62.11;99309.25;4322522;33;20258;-87
2022/12/31 01:03:46;;;;;;;41.92;15.68;;;;;;;9.05;62.00;99317.19;4322469;33;20150;-87
2022/12/31 01:06:11;;;;;;;46.25;16.60;;;;;;;9.04;62.03;99320.75;4335730;33;20100;-85
2022/12/31 01:08:37;;;;;;;41.83;14.35;;;;;;;9.05;62.09;99319.84;4322617;33;20491;-87
2022/12/31 01:11:18;;;;;;;41.13;13.93;;;;;;;9.03;61.99;99303.28;4322419;33;20146;-86
2022/12/31 01:14:13;;;;;;;44.58;15.15;;;;;;;9.07;61.87;99316.28;4311988;33;20447;-92
2022/12/31 01:16:41;;;;;;;40.63;15.95;;;;;;;9.08;61.87;99318.00;4329998;33;20181;-94
2022/12/31 01:19:08;;;;;;;;;;;;;;;9.04;61.86;99318.13;4322866;33;20107;-90
2022/12/31 01:21:34;;;;;;;36.45;13.95;;;;;;;9.08;61.84;99316.25;4335893;33;19986;-93
2022/12/31 01:23:59;;;;;;;37.53;15.43;;;;;;;9.01;62.00;99315.63;4322825;33;20080;-86
2022/12/31 01:26:25;;;;;;;42.08;16.67;;;;;;;8.97;62.19;99316.66;4322335;33;20487;-87
2022/12/31 01:28:51;;;;;;;45.10;15.70;;;;;;;9.00;62.20;99321.81;4335965;33;20088;-86
2022/12/31 01:31:17;;;;;;;42.25;15.80;;;;;;;9.02;62.20;99319.97;4335764;33;20106;-86
2022/12/31 01:33:44;;;;;;;43.25;16.33;;;;;;;9.07;62.08;99326.81;4322484;33;20103;-85
2022/12/31 01:36:13;;;;;;;42.88;15.50;;;;;;;9.08;61.92;99324.13;4322200;33;20175;-86
2022/12/31 01:38:39;;;;;;;42.65;14.93;;;;;;;9.11;61.82;99333.66;4335486;33;20552;-85
2022/12/31 01:41:05;;;;;;;49.97;15.18;;;;;;;9.11;61.77;99329.25;4322251;33;20084;-90
2022/12/31 01:44:08;;;;;;;39.42;14.43;;;;;;;9.13;61.67;99330.03;4335578;33;20098;-89
2022/12/31 01:46:41;;;;;;;43.20;15.52;;;;;;;9.09;61.60;99325.81;4289888;33;20528;-89
2022/12/31 01:49:16;;;;;;;37.85;14.75;;;;;;;8.83;62.22;99335.59;4277075;33;20093;-89
2022/12/31 01:51:45;;;;;;;42.35;15.43;;;;;;;8.92;62.04;99328.25;4289696;33;20115;-89
2022/12/31 01:54:12;;;;;;;136.12;19.33;;;;;;;8.96;61.74;99332.47;4289838;33;20500;-89
2022/12/31 01:56:38;;;;;;;42.50;13.95;;;;;;;8.64;62.44;99324.94;4289777;33;20528;-85
2022/12/31 01:59:05;;;;;;;38.70;14.32;;;;;;;8.83;62.07;99322.47;4289453;33;20541;-88
2022/12/31 02:01:31;;;;;;;39.97;14.73;;;;;;;8.90;62.13;99320.44;4277685;33;20153;-92
2022/12/31 02:03:58;;;;;;;44.30;15.25;;;;;;;8.93;62.13;99322.09;4277653;33;20247;-91
2022/12/31 02:06:29;;;;;;;38.30;15.25;;;;;;;8.88;62.24;99342.44;4289606;33;20477;-88
2022/12/31 02:08:55;;;;;;;43.17;15.30;;;;;;;8.86;62.10;99337.25;4289598;33;20100;-85
2022/12/31 02:11:36;;;;;;;46.53;15.98;;;;;;;8.93;61.95;99333.47;4289577;33;20108;-85
2022/12/31 02:14:05;;;;;;;43.95;16.00;;;;;;;8.91;62.14;99332.66;4289954;33;20088;-88
2022/12/31 02:16:33;;;;;;;42.33;14.73;;;;;;;9.00;61.81;99334.06;4289400;33;20100;-87
2022/12/31 02:19:21;;;;;;;45.12;15.10;;;;;;;8.97;61.97;99336.84;4289495;33;20096;-87
2022/12/31 02:21:55;;;;;;;51.92;17.12;;;;;;;8.98;61.97;99338.53;4284885;33;20119;-87
2022/12/31 02:24:33;;;;;;;109.12;20.95;;;;;;;8.95;62.05;99328.16;4316903;33;20079;-88
2022/12/31 02:27:28;;;;;;;48.33;16.45;;;;;;;8.96;61.96;99321.97;4321528;33;20131;-88
2022/12/31 02:30:10;;;;;;;55.28;17.67;;;;;;;8.96;61.97;99324.59;4327344;33;20118;-88
2022/12/31 02:32:44;;;;;;;143.90;20.60;;;;;;;8.87;62.09;99330.22;4334009;33;20472;-87
2022/12/31 02:35:31;;;;;;;47.53;15.75;;;;;;;8.81;62.15;99332.19;4335314;33;20088;-88
2022/12/31 02:38:03;;;;;;;59.10;16.80;;;;;;;8.86;62.26;99339.88;4321847;33;20480;-88
2022/12/31 02:40:28;;;;;;;52.20;15.80;;;;;;;8.92;62.23;99339.63;4335267;33;20092;-87
2022/12/31 02:42:54;;;;;;;59.53;17.75;;;;;;;8.91;62.21;99344.97;4334221;33;20092;-87
2022/12/31 02:45:25;;;;;;;54.30;17.62;;;;;;;8.90;62.28;99335.34;4335183;33;20393;-88
2022/12/31 02:48:05;;;;;;;47.45;16.80;;;;;;;8.92;62.24;99338.78;4321884;33;20120;-89
2022/12/31 02:51:02;;;;;;;49.95;17.27;;;;;;;8.88;62.35;99340.66;4309625;33;20468;-90
2022/12/31 02:53:58;;;;;;;50.80;16.30;;;;;;;8.89;62.41;99333.66;4334057;33;20084;-90
2022/12/31 02:56:37;;;;;;;43.60;15.73;;;;;;;8.89;62.22;99333.66;4333939;33;20131;-89
2022/12/31 03:02:14;;;;;;;43.28;15.80;;;;;;;8.95;62.37;99328.16;4323831;33;20122;-90
2022/12/31 03:04:47;;;;;;;48.53;15.35;;;;;;;8.95;62.39;99318.50;4333880;33;20485;-89
2022/12/31 03:07:18;;;;;;;46.33;15.98;;;;;;;8.98;62.31;99315.75;4321782;33;20514;-87
2022/12/31 03:09:44;;;;;;;91.80;19.42;;;;;;;8.95;62.29;99318.50;4321742;33;20133;-87
2022/12/31 03:14:54;;;;;;;52.83;17.37;;;;;;;8.96;61.92;99330.72;4323773;33;20118;-87
2022/12/31 03:17:20;;;;;;;43.47;16.95;;;;;;;8.93;62.11;99317.69;4334919;33;20084;-86
2022/12/31 03:22:30;;;;;;;46.58;16.98;;;;;;;8.99;61.97;99299.06;4323674;33;20118;-89
2022/12/31 03:27:46;;;;;;;133.85;22.92;;;;;;;8.69;62.73;99311.59;4323503;33;20466;-88
2022/12/31 03:30:13;;;;;;;78.60;19.17;;;;;;;8.76;62.60;99312.25;4334925;33;20096;-88
2022/12/31 03:32:39;;;;;;;59.60;17.80;;;;;;;8.79;62.63;99313.00;4321404;33;20103;-87
2022/12/31 03:35:05;;;;;;;48.78;16.62;;;;;;;8.82;62.59;99312.00;4321406;33;20092;-87
2022/12/31 03:37:31;;;;;;;53.78;17.42;;;;;;;8.85;62.48;99322.41;4334866;33;20208;-87
2022/12/31 03:39:56;;;;;;;52.47;17.42;;;;;;;8.88;62.48;99329.31;4333505;33;20103;-85
2022/12/31 03:42:21;;;;;;;44.17;16.17;;;;;;;8.94;62.26;99322.03;4334685;33;20118;-85
2022/12/31 03:44:47;;;;;;;47.30;17.23;;;;;;;8.91;62.24;99316.06;4321402;33;20092;-85
2022/12/31 03:47:12;;;;;;;52.70;16.50;;;;;;;8.95;62.28;99315.00;4334698;33;20402;-86
2022/12/31 03:49:38;;;;;;;51.28;16.85;;;;;;;8.95;62.34;99313.25;4334647;33;20450;-90
2022/12/31 03:52:05;;;;;;;69.07;17.80;;;;;;;8.94;62.32;99310.66;4334721;33;20334;-90
2022/12/31 03:54:31;;;;;;;42.80;16.37;;;;;;;8.75;62.54;99321.91;4321550;33;20092;-90
2022/12/31 03:56:56;;;;;;;49.03;16.37;;;;;;;8.53;63.27;99306.09;4333585;33;20334;-90
2022/12/31 03:59:21;;;;;;;92.32;19.12;;;;;;;8.78;62.77;99305.16;4334482;33;20092;-90
2022/12/31 04:01:47;;;;;;;52.03;17.27;;;;;;;8.82;62.72;99306.75;4334635;33;20201;-89
2022/12/31 04:04:12;;;;;;;47.22;17.25;;;;;;;8.92;62.52;99315.13;4334613;33;20068;-88
2022/12/31 04:06:38;;;;;;;47.45;16.83;;;;;;;8.92;62.49;99312.50;4321087;33;20083;-90
2022/12/31 04:09:03;;;;;;;47.85;16.02;;;;;;;8.97;62.56;99311.41;4334613;33;20130;-91
2022/12/31 04:11:28;;;;;;;54.22;17.00;;;;;;;9.01;62.42;99301.63;4333942;33;20115;-91
2022/12/31 04:13:54;;;;;;;54.25;17.92;;;;;;;8.94;62.50;99310.66;4334608;33;20087;-91
2022/12/31 04:16:19;;;;;;;49.83;17.25;;;;;;;8.95;62.46;99313.25;4321111;33;20088;-90
2022/12/31 04:18:45;;;;;;;68.47;17.98;;;;;;;9.00;62.46;99315.66;4320896;33;20100;-91
2022/12/31 04:21:10;;;;;;;47.03;16.67;;;;;;;9.01;62.64;99320.03;4334427;33;20114;-91
2022/12/31 04:23:36;;;;;;;50.60;15.88;;;;;;;9.03;62.76;99315.56;4334360;33;20092;-91
2022/12/31 04:26:01;;;;;;;66.75;17.80;;;;;;;9.03;62.73;99323.44;4320722;33;20175;-91
2022/12/31 04:28:26;;;;;;;170.10;20.15;;;;;;;8.99;62.68;99335.00;4334417;33;20092;-88
2022/12/31 04:30:52;;;;;;;64.78;18.23;;;;;;;8.80;62.92;99346.22;4332904;33;20100;-87
2022/12/31 04:33:17;;;;;;;150.48;21.62;;;;;;;8.91;62.78;99348.44;4334251;33;20079;-86
2022/12/31 04:35:43;;;;;;;158.37;22.67;;;;;;;8.85;62.88;99330.28;4334248;33;20382;-89
2022/12/31 04:38:08;;;;;;;109.40;19.80;;;;;;;8.57;63.58;99330.47;4320687;33;20132;-90
2022/12/31 04:40:34;;;;;;;65.07;19.65;;;;;;;8.81;63.00;99333.94;4333930;33;20088;-88
2022/12/31 04:42:59;;;;;;;61.22;18.98;;;;;;;8.83;63.12;99345.25;4320624;33;20146;-87
2022/12/31 04:45:25;;;;;;;72.18;17.75;;;;;;;8.77;63.37;99346.34;4334133;33;20088;-88
2022/12/31 04:47:50;;;;;;;82.32;19.67;;;;;;;8.85;63.38;99351.31;4334044;33;20076;-88
2022/12/31 04:50:16;;;;;;;138.45;22.98;;;;;;;8.69;63.47;99351.00;4333960;33;20134;-87
2022/12/31 04:52:41;;;;;;;69.30;18.10;;;;;;;8.84;63.46;99352.22;4333922;33;20119;-89
2022/12/31 04:55:07;;;;;;;218.98;25.12;;;;;;;8.77;63.64;99353.34;4320485;33;20093;-90
2022/12/31 04:57:32;;;;;;;68.10;19.35;;;;;;;8.74;63.78;99356.97;4334085;33;20093;-89
2022/12/31 04:59:57;;;;;;;394.05;31.20;;;;;;;8.70;63.87;99371.13;4334098;33;20114;-89
2022/12/31 05:02:23;;;;;;;93.10;19.95;;;;;;;8.08;65.37;99375.09;4333984;33;20352;-89
2022/12/31 05:04:48;;;;;;;89.62;20.37;;;;;;;8.36;64.90;99371.47;4333788;33;20080;-90
2022/12/31 05:07:13;;;;;;;95.93;22.00;;;;;;;8.54;64.37;99381.34;4334223;33;20478;-88
2022/12/31 05:09:39;;;;;;;367.65;29.23;;;;;;;8.63;64.16;99380.12;4333969;33;20176;-85
2022/12/31 05:12:05;;;;;;;128.07;20.67;;;;;;;8.39;64.70;99384.50;4334102;33;20088;-82
2022/12/31 05:14:30;;;;;;;112.95;19.85;;;;;;;8.58;64.44;99389.97;4333956;33;20365;-84
2022/12/31 05:16:57;;;;;;;58.92;16.85;;;;;;;8.61;64.16;99397.72;4333594;33;20143;-82
2022/12/31 05:19:22;;;;;;;86.55;17.98;;;;;;;8.51;64.58;99396.34;4320075;33;20645;-80
2022/12/31 05:22:27;;;;;;;166.60;22.05;;;;;;;8.51;64.81;99385.84;4320190;33;20229;-85
2022/12/31 05:24:33;;;;;;;287.38;28.30;;;;;;;8.43;65.04;99394.84;4334901;33;20079;-85
2022/12/31 05:26:58;;;;;;;74.65;18.62;;;;;;;8.38;65.14;99394.16;4335427;33;20123;-81
2022/12/31 05:29:24;;;;;;;122.72;18.95;;;;;;;8.38;65.11;99383.66;4335840;33;20107;-83
2022/12/31 05:31:49;;;;;;;92.68;16.83;;;;;;;8.41;64.97;99385.31;4335650;33;20106;-83
2022/12/31 05:34:15;;;;;;;77.47;16.20;;;;;;;8.27;65.52;99394.53;4335624;33;20433;-83
2022/12/31 05:36:40;;;;;;;69.37;18.25;;;;;;;8.26;65.25;99387.53;4335594;33;20088;-82
2022/12/31 05:39:05;;;;;;;68.07;16.45;;;;;;;8.31;65.50;99405.78;4334799;33;20117;-83
2022/12/31 05:41:31;;;;;;;71.12;16.70;;;;;;;8.32;65.45;99409.25;4334901;33;20140;-82
2022/12/31 05:43:56;;;;;;;87.28;17.77;;;;;;;8.22;65.99;99417.44;4334825;33;20100;-82
2022/12/31 05:46:21;;;;;;;62.90;16.55;;;;;;;8.15;66.43;99417.69;4334687;33;20108;-82
2022/12/31 05:48:47;;;;;;;89.22;17.95;;;;;;;7.90;67.02;99422.94;4334865;33;20122;-82
2022/12/31 05:51:12;;;;;;;127.57;18.90;;;;;;;8.06;66.90;99425.00;4334892;33;20099;-83
2022/12/31 05:53:38;;;;;;;126.57;18.25;;;;;;;7.90;67.14;99425.56;4334789;33;20096;-81
2022/12/31 05:56:03;;;;;;;72.87;18.27;;;;;;;8.25;66.21;99435.72;4334870;33;20092;-82
2022/12/31 05:58:29;;;;;;;56.97;17.58;;;;;;;8.31;66.16;99431.19;4320737;33;20120;-81
2022/12/31 06:00:54;;;;;;;48.10;14.55;;;;;;;8.31;66.20;99425.94;4321215;33;20099;-81
2022/12/31 06:03:19;;;;;;;78.25;16.87;;;;;;;8.33;66.30;99422.31;4334838;33;20083;-81
2022/12/31 06:05:45;;;;;;;63.00;15.63;;;;;;;8.20;66.65;99421.03;4333625;33;20119;-81
2022/12/31 06:08:11;;;;;;;73.78;16.48;;;;;;;8.29;66.55;99423.34;4334681;33;20380;-84
2022/12/31 06:10:36;;;;;;;53.70;15.75;;;;;;;8.50;65.56;99426.12;4333528;33;20147;-82
2022/12/31 06:13:02;;;;;;;55.88;16.08;;;;;;;8.38;66.02;99425.66;4319023;33;20112;-81
2022/12/31 06:15:27;;;;;;;67.90;16.08;;;;;;;8.34;66.44;99428.44;4319475;33;20108;-81
2022/12/31 06:17:52;;;;;;;43.92;15.10;;;;;;;8.21;66.67;99426.25;4320521;33;20185;-80
2022/12/31 06:20:18;;;;;;;61.00;16.77;;;;;;;8.39;66.07;99408.97;4319512;33;20084;-81
2022/12/31 06:22:43;;;;;;;44.20;14.82;;;;;;;8.18;66.43;99413.22;4320603;33;20112;-80
2022/12/31 06:25:09;;;;;;;50.30;16.25;;;;;;;8.45;65.95;99403.53;4319727;33;20155;-80
2022/12/31 06:27:34;;;;;;;63.53;15.80;;;;;;;8.58;65.62;99397.84;4320805;33;20092;-79
2022/12/31 06:29:59;;;;;;;51.30;15.65;;;;;;;8.53;65.66;99411.12;4319626;33;20099;-80
2022/12/31 06:32:25;;;;;;;92.30;17.00;;;;;;;8.58;65.54;99424.13;4320862;33;20330;-80
2022/12/31 06:34:50;;;;;;;64.10;16.83;;;;;;;8.55;65.66;99422.44;4319239;33;20104;-81
2022/12/31 06:37:16;;;;;;;57.33;15.85;;;;;;;8.67;65.42;99429.00;4320701;33;20084;-80
2022/12/31 06:39:41;;;;;;;71.75;16.30;;;;;;;8.71;65.02;99414.87;4320766;33;20181;-79
2022/12/31 06:42:06;;;;;;;64.50;16.83;;;;;;;8.56;65.40;99425.94;4307567;33;20442;-80
2022/12/31 06:44:32;;;;;;;46.42;15.30;;;;;;;8.71;64.97;99428.00;4320751;33;20100;-80
2022/12/31 06:46:57;;;;;;;59.28;15.38;;;;;;;8.69;65.02;99436.84;4320421;33;20080;-80
2022/12/31 06:49:22;;;;;;;51.33;16.00;;;;;;;8.69;65.00;99431.59;4319140;33;20445;-81
2022/12/31 06:51:48;;;;;;;49.55;16.05;;;;;;;8.72;64.90;99436.75;4320333;33;20103;-81
2022/12/31 06:54:13;;;;;;;55.78;15.98;;;;;;;8.81;64.86;99434.63;4319231;33;20406;-80
2022/12/31 06:56:39;;;;;;;49.78;15.98;;;;;;;8.89;64.55;99436.13;4320431;33;20127;-80
2022/12/31 06:59:05;;;;;;;47.50;15.40;;;;;;;8.92;64.52;99444.72;4320363;33;20110;-82
2022/12/31 07:01:36;;;;;;;50.65;16.23;;;;;;;8.95;64.49;99438.53;4319121;33;20147;-82
2022/12/31 07:04:26;;;;;;;48.35;15.38;;;;;;;8.96;64.66;99445.47;4319221;33;20112;-81
2022/12/31 07:07:13;;;;;;;55.97;15.23;;;;;;;8.96;64.67;99446.34;4320328;33;20088;-81
2022/12/31 07:09:44;;;;;;;75.90;16.48;;;;;;;9.03;64.47;99439.09;4320368;33;20127;-80
2022/12/31 07:12:31;;;;;;;286.98;27.40;;;;;;;9.10;64.18;99453.72;4320420;33;20103;-80
2022/12/31 07:15:13;;;;;;;156.35;21.85;;;;;;;8.95;64.24;99449.03;4320340;33;20134;-81
2022/12/31 07:17:57;;;;;;;58.85;15.98;;;;;;;8.92;64.26;99457.00;4319254;33;20108;-81
2022/12/31 07:20:22;;;;;;;66.32;17.05;;;;;;;8.96;64.20;99458.63;4320320;33;20143;-82
2022/12/31 07:22:48;;;;;;;75.93;15.98;;;;;;;8.99;64.08;99461.13;4320269;33;20135;-82
2022/12/31 07:25:16;;;;;;;68.18;17.62;;;;;;;8.97;64.36;99460.34;4320281;33;20116;-80
2022/12/31 07:27:41;;;;;;;99.68;20.37;;;;;;;9.03;64.45;99468.84;4318995;33;20134;-80
2022/12/31 07:30:16;;;;;;;109.90;18.12;;;;;;;9.10;64.25;99464.22;4320258;33;20434;-80
2022/12/31 07:33:03;;;;;;;101.28;20.65;;;;;;;9.05;64.42;99466.16;4319200;33;20242;-80
2022/12/31 07:35:49;;;;;;;80.97;16.65;;;;;;;9.14;64.00;99471.06;4320447;33;20108;-80
2022/12/31 07:38:36;;;;;;;391.23;33.90;;;;;;;9.06;63.97;99460.00;4319107;33;20100;-81
2022/12/31 07:41:08;;;;;;;55.65;17.98;;;;;;;8.51;65.54;99475.97;4319208;33;20103;-79
2022/12/31 07:43:50;;;;;;;47.20;15.93;;;;;;;8.85;64.46;99467.75;4320008;33;20166;-79
2022/12/31 07:46:18;;;;;;;49.42;16.65;;;;;;;9.01;64.06;99464.56;4337698;33;20210;-78
2022/12/31 07:48:43;;;;;;;;;;;;;;;9.08;64.23;99473.06;4349715;33;20096;-78
2022/12/31 07:51:10;;;;;;;134.57;20.80;;;;;;;9.16;64.24;99479.75;4348394;33;20247;-78
2022/12/31 07:53:36;;;;;;;55.50;16.08;;;;;;;9.18;64.11;99472.66;4349397;33;20136;-79
2022/12/31 07:56:04;;;;;;;74.68;18.75;;;;;;;9.27;63.74;99476.72;4349377;33;20115;-79
2022/12/31 07:58:38;;;;;;;89.82;18.48;;;;;;;9.35;63.66;99479.03;4336077;33;20484;-81
2022/12/31 08:01:04;;;;;;;68.28;16.80;;;;;;;9.37;63.33;99482.50;4349374;33;20436;-81
2022/12/31 08:03:58;;;;;;;44.05;16.35;;;;;;;9.38;62.95;99484.19;4336013;33;20102;-81
2022/12/31 08:06:48;;;;;;;125.45;20.50;;;;;;;9.39;63.07;99489.41;4349482;33;20095;-79
2022/12/31 08:09:25;;;;;;;98.00;19.17;;;;;;;9.39;63.31;99491.19;4349582;33;20474;-80
2022/12/31 08:11:56;;;;;;;51.75;17.27;;;;;;;9.52;63.10;99496.81;4349257;33;20087;-80
2022/12/31 08:14:22;;;;;;;70.97;18.15;;;;;;;9.44;63.13;99500.63;4348172;33;20466;-80
2022/12/31 08:16:47;;;;;;;128.40;20.73;;;;;;;9.48;63.20;99503.97;4349263;33;20143;-80
2022/12/31 08:19:31;;;;;;;136.62;20.05;;;;;;;9.30;63.36;99507.31;4348000;33;20103;-80
2022/12/31 08:22:12;;;;;;;72.87;18.15;;;;;;;9.15;63.58;99513.97;4335638;33;20110;-81
2022/12/31 08:24:58;;;;;;;46.03;17.12;;;;;;;9.33;63.17;99515.94;4349288;33;20088;-81
2022/12/31 08:27:42;;;;;;;46.37;16.77;;;;;;;9.59;62.53;99527.22;4348819;33;20524;-80
2022/12/31 08:30:36;;;;;;;65.50;18.48;;;;;;;9.71;62.19;99523.25;4335754;33;20456;-80
2022/12/31 08:33:20;;;;;;;78.70;19.92;;;;;;;9.76;62.19;99523.94;4332000;33;20169;-80
2022/12/31 08:36:25;;;;;;;104.45;19.55;;;;;;;9.20;63.80;99535.72;4349299;33;20076;-80
2022/12/31 08:39:17;;;;;;;105.53;19.30;;;;;;;9.60;62.72;99542.06;4342780;33;20459;-80
2022/12/31 08:41:44;;;;;;;141.52;21.10;;;;;;;9.25;63.25;99552.16;4348679;33;20117;-80
2022/12/31 08:44:26;;;;;;;97.62;20.30;;;;;;;9.20;63.58;99570.75;4335412;33;20118;-80
2022/12/31 08:47:12;;;;;;;77.72;20.37;;;;;;;9.52;62.74;99546.78;4347736;33;20080;-80
2022/12/31 08:49:38;;;;;;;50.28;18.10;;;;;;;9.39;63.54;99554.28;4348835;33;20123;-81
2022/12/31 08:52:13;;;;;;;57.55;17.80;;;;;;;9.51;63.32;99559.09;4348855;33;20095;-81
2022/12/31 08:54:39;;;;;;;54.47;19.33;;;;;;;9.73;63.00;99560.88;4335274;33;20436;-81
2022/12/31 08:57:26;;;;;;;60.83;21.10;;;;;;;9.90;62.56;99550.56;4335361;33;20135;-81
2022/12/31 09:00:10;;;;;;;51.75;19.20;;;;;;;10.07;62.47;99542.00;4350501;33;20116;-82
2022/12/31 09:02:41;;;;;;;46.67;16.77;;;;;;;10.04;62.04;99555.28;4343507;33;228400;-81
2022/12/31 09:05:21;;;;;;;47.58;18.08;;;;;;;10.23;61.55;99552.75;4350586;33;20102;-81
2022/12/31 09:07:55;;;;;;;49.72;17.80;;;;;;;10.25;61.31;99556.19;4349428;33;20096;-81
2022/12/31 09:10:28;;;;;;;47.88;17.77;;;;;;;10.09;61.48;99561.22;4350583;33;20444;-81
2022/12/31 09:13:13;;;;;;;49.88;18.85;;;;;;;10.12;61.49;99550.56;4324837;33;20448;-81
2022/12/31 09:15:47;;;;;;;52.10;18.25;;;;;;;10.20;61.43;99558.16;4337014;33;20090;-81
2022/12/31 09:18:13;;;;;;;49.47;18.35;;;;;;;10.36;61.13;99558.41;4337198;33;20142;-80
2022/12/31 09:20:39;;;;;;;49.17;18.15;;;;;;;10.40;60.85;99550.31;4350383;33;20495;-81
2022/12/31 09:23:05;;;;;;;53.33;18.80;;;;;;;10.48;60.80;99560.53;4350578;33;20103;-81
2022/12/31 09:25:31;;;;;;;53.53;19.05;;;;;;;10.54;60.52;99556.78;4348998;33;20429;-78
2022/12/31 09:28:30;;;;;;;54.53;19.00;;;;;;;10.56;60.43;99539.13;4350541;33;20080;-80
2022/12/31 09:31:35;;;;;;;58.97;20.30;;;;;;;10.54;60.59;99547.09;4336979;33;20127;-78
2022/12/31 09:34:16;;;;;;;54.10;19.17;;;;;;;10.58;60.56;99543.41;4291419;33;20478;-79
2022/12/31 09:36:48;;;;;;;54.60;20.23;;;;;;;10.56;60.71;99534.72;4303500;33;20123;-78
2022/12/31 09:39:32;;;;;;;54.97;19.30;;;;;;;10.60;60.71;99523.16;4303388;33;20089;-79
2022/12/31 09:42:14;;;;;;;54.53;20.12;;;;;;;10.58;60.82;99529.37;4303203;33;20157;-78
2022/12/31 09:45:01;;;;;;;51.90;18.87;;;;;;;10.65;61.10;99509.75;4303515;33;20131;-79
2022/12/31 09:47:45;;;;;;;55.83;19.80;;;;;;;10.79;61.12;99511.78;4301750;33;20088;-80
2022/12/31 09:50:27;;;;;;;54.55;21.12;;;;;;;10.88;61.25;99506.13;4302028;33;20104;-80
2022/12/31 09:53:10;;;;;;;52.62;21.23;;;;;;;10.80;61.58;99502.97;4316327;33;20132;-80
2022/12/31 09:55:48;;;;;;;51.30;19.15;;;;;;;10.66;62.38;99493.00;4315047;33;20134;-82
2022/12/31 09:58:31;;;;;;;51.53;20.37;;;;;;;11.11;61.39;99491.91;4310163;33;20170;-82
2022/12/31 10:01:10;;;;;;;51.55;19.42;;;;;;;11.05;61.15;99480.75;4315390;33;20092;-80
2022/12/31 10:03:51;;;;;;;53.38;19.87;;;;;;;11.08;60.54;99478.84;4302869;33;20180;-80
2022/12/31 10:06:41;;;;;;;49.95;19.98;;;;;;;11.33;59.94;99478.56;4309958;33;20116;-79
2022/12/31 10:09:25;;;;;;;55.17;21.10;;;;;;;11.55;59.05;99472.28;4302171;33;20097;-81
2022/12/31 10:12:22;;;;;;;49.83;20.25;;;;;;;10.89;61.45;99476.19;4334439;33;20087;-79
2022/12/31 10:14:55;;;;;;;53.90;20.33;;;;;;;11.22;60.01;99488.75;4334481;33;20108;-82
2022/12/31 10:17:38;;;;;;;53.30;20.17;;;;;;;11.11;60.25;99481.34;4322042;33;20103;-81
2022/12/31 10:20:29;;;;;;;57.08;21.12;;;;;;;10.83;61.31;99489.66;4321994;33;20083;-78
2022/12/31 10:23:18;;;;;;;56.17;20.45;;;;;;;11.09;59.90;99479.72;4303745;33;20331;-79
2022/12/31 10:25:55;;;;;;;49.83;21.12;;;;;;;11.12;59.76;99479.56;4285356;33;20136;-80
2022/12/31 10:28:54;;;;;;;50.58;21.40;;;;;;;11.33;59.71;99480.38;4300522;33;20109;-77
2022/12/31 10:31:39;;;;;;;54.45;21.85;;;;;;;11.48;59.28;99482.28;4298309;33;20093;-82
2022/12/31 10:34:16;;;;;;;52.38;21.48;;;;;;;11.39;59.11;99490.63;4290644;33;20382;-82
2022/12/31 10:36:57;;;;;;;51.50;20.45;;;;;;;11.55;58.52;99485.47;4300674;33;20497;-82
2022/12/31 10:39:34;;;;;;;50.45;22.48;;;;;;;11.65;58.07;99486.78;4288741;33;20175;-81
2022/12/31 10:42:27;;;;;;;53.60;21.08;;;;;;;11.50;58.50;99493.62;4290452;33;20169;-82
2022/12/31 10:45:37;;;;;;;50.53;20.20;;;;;;;11.44;58.72;99495.72;4295569;33;20100;-82
2022/12/31 10:48:35;;;;;;;53.60;21.85;;;;;;;11.65;58.47;99477.97;4284490;33;20105;-82
2022/12/31 10:51:46;;;;;;;50.75;21.50;;;;;;;11.71;58.49;99494.38;4301497;33;20139;-82
2022/12/31 10:54:17;;;;;;;;;;;;;;;11.63;58.30;99487.75;4291197;33;20229;-82
2022/12/31 10:57:06;;;;;;;52.97;22.02;;;;;;;11.49;58.49;99478.72;4300642;33;19999;-79
2022/12/31 10:59:43;;;;;;;55.55;22.65;;;;;;;11.04;59.55;99484.34;4308147;33;20084;-82
2022/12/31 11:02:42;;;;;;;50.30;21.37;;;;;;;11.35;59.17;99483.78;4318585;33;20396;-81
2022/12/31 11:05:36;;;;;;;54.10;21.77;;;;;;;11.57;58.61;99463.38;4333112;33;20528;-82
2022/12/31 11:08:10;;;;;;;50.63;21.73;;;;;;;11.54;58.80;99482.00;4317350;33;20104;-82
2022/12/31 11:10:54;;;;;;;53.92;21.00;;;;;;;11.58;58.70;99480.06;4324662;33;20468;-81
2022/12/31 11:13:46;;;;;;;54.88;22.30;;;;;;;11.03;59.83;99483.50;4332148;33;20147;-82
2022/12/31 11:16:30;;;;;;;50.08;21.42;;;;;;;11.51;58.74;99474.25;4321451;33;20096;-82
2022/12/31 11:19:14;;;;;;;45.28;20.48;;;;;;;11.45;59.09;99466.59;4332359;33;20091;-82
2022/12/31 11:21:52;;;;;;;49.58;20.30;;;;;;;11.33;59.44;99459.25;4332680;33;20108;-82
2022/12/31 11:24:54;;;;;;;46.47;20.83;;;;;;;11.58;58.87;99441.31;4329559;33;20100;-81
2022/12/31 11:27:37;;;;;;;56.60;21.80;;;;;;;11.67;58.60;99471.72;4344230;33;20487;-81
2022/12/31 11:30:02;;;;;;;48.92;21.02;;;;;;;11.67;58.51;99461.16;4332501;33;20159;-83
2022/12/31 11:32:50;;;;;;;50.17;22.02;;;;;;;11.81;58.37;99466.59;4345499;33;20123;-82
2022/12/31 11:35:24;;;;;;;49.28;21.42;;;;;;;11.85;58.34;99469.97;4332181;33;20107;-81
2022/12/31 11:37:52;;;;;;;51.92;21.45;;;;;;;11.98;57.89;99476.38;4330143;33;20119;-82
2022/12/31 11:40:20;;;;;;;;;;;;;;;12.09;57.57;99465.31;4330799;33;20114;-82
2022/12/31 11:43:12;;;;;;;51.05;22.08;;;;;;;12.03;57.56;99464.72;4331959;33;20001;-80
2022/12/31 11:46:00;;;;;;;51.10;21.90;;;;;;;12.18;57.22;99464.81;4315244;33;20452;-81
2022/12/31 11:48:35;;;;;;;52.70;21.50;;;;;;;12.24;57.08;99458.38;4343694;33;20122;-82
2022/12/31 11:51:21;;;;;;;53.00;21.83;;;;;;;12.37;56.70;99448.03;4343869;33;20096;-81
2022/12/31 11:54:05;;;;;;;54.15;23.05;;;;;;;12.34;56.94;99446.41;4341656;33;20456;-81
2022/12/31 11:56:39;;;;;;;52.78;22.65;;;;;;;12.17;57.24;99455.19;4334621;33;20171;-81
2022/12/31 11:59:12;;;;;;;50.75;21.83;;;;;;;12.27;56.89;99463.50;4308348;33;20185;-81
2022/12/31 12:01:40;;;;;;;46.67;22.37;;;;;;;12.37;57.01;99469.19;4343869;33;20095;-81